sensor_id;sensor_type;location;lat;lon;timestamp;P1;durP1;ratioP1;P2;durP2;ratioP2
68655;SDS011;55638;51.122;13.606;2024-01-30T16:14:16;29.20;;;16.25;;
68655;SDS011;55638;51.122;13.606;2024-01-30T16:15:48;32.08;;;16.17;;
68655;SDS011;55638;51.122;13.606;2024-01-30T16:17:20;29.13;;;16.30;;
68655;SDS011;55638;51.122;13.606;2024-01-30T16:18:52;31.85;;;16.73;;
68655;SDS011;55638;51.122;13.606;2024-01-30T16:20:24;30.10;;;16.02;;
68655;SDS011;55638;51.122;13.606;2024-01-30T16:21:56;29.25;;;15.50;;
68655;SDS011;55638;51.122;13.606;2024-01-30T16:23:28;28.75;;;16.05;;
68655;SDS011;55638;51.122;13.606;2024-01-30T16:24:59;29.90;;;16.38;;
68655;SDS011;55638;51.122;13.606;2024-01-30T16:26:31;28.25;;;15.32;;
68655;SDS011;55638;51.122;13.606;2024-01-30T16:28:03;32.80;;;16.85;;
68655;SDS011;55638;51.122;13.606;2024-01-30T16:29:36;30.17;;;16.60;;
68655;SDS011;55638;51.122;13.606;2024-01-30T16:31:07;30.98;;;16.45;;
68655;SDS011;55638;51.122;13.606;2024-01-30T16:32:39;28.77;;;14.98;;
68655;SDS011;55638;51.122;13.606;2024-01-30T16:34:11;29.67;;;15.55;;
68655;SDS011;55638;51.122;13.606;2024-01-30T16:35:44;33.03;;;16.45;;
68655;SDS011;55638;51.122;13.606;2024-01-30T16:37:20;29.48;;;15.98;;
68655;SDS011;55638;51.122;13.606;2024-01-30T16:38:52;31.10;;;16.90;;
68655;SDS011;55638;51.122;13.606;2024-01-30T16:40:24;30.27;;;16.90;;
68655;SDS011;55638;51.122;13.606;2024-01-30T16:41:55;31.25;;;16.45;;
68655;SDS011;55638;51.122;13.606;2024-01-30T16:43:27;27.83;;;15.55;;
68655;SDS011;55638;51.122;13.606;2024-01-30T16:45:00;27.85;;;15.88;;
68655;SDS011;55638;51.122;13.606;2024-01-30T16:46:32;31.05;;;16.75;;
68655;SDS011;55638;51.122;13.606;2024-01-30T16:48:04;28.90;;;16.35;;
68655;SDS011;55638;51.122;13.606;2024-01-30T16:49:37;29.60;;;16.05;;
68655;SDS011;55638;51.122;13.606;2024-01-30T16:51:11;28.98;;;15.73;;
68655;SDS011;55638;51.122;13.606;2024-01-30T16:52:43;27.20;;;16.33;;
68655;SDS011;55638;51.122;13.606;2024-01-30T16:54:15;31.52;;;16.70;;
68655;SDS011;55638;51.122;13.606;2024-01-30T16:55:49;27.83;;;15.85;;
68655;SDS011;55638;51.122;13.606;2024-01-30T16:57:21;30.42;;;16.73;;
68655;SDS011;55638;51.122;13.606;2024-01-30T16:58:53;29.30;;;17.13;;
68655;SDS011;55638;51.122;13.606;2024-01-30T17:00:31;30.42;;;16.63;;
68655;SDS011;55638;51.122;13.606;2024-01-30T17:02:07;30.73;;;17.33;;
68655;SDS011;55638;51.122;13.606;2024-01-30T17:03:41;29.17;;;16.27;;
68655;SDS011;55638;51.122;13.606;2024-01-30T17:05:16;30.08;;;17.05;;
68655;SDS011;55638;51.122;13.606;2024-01-30T17:07:03;32.70;;;17.65;;
68655;SDS011;55638;51.122;13.606;2024-01-30T17:08:36;29.65;;;16.75;;
68655;SDS011;55638;51.122;13.606;2024-01-30T17:10:10;31.05;;;16.95;;
68655;SDS011;55638;51.122;13.606;2024-01-30T17:11:42;27.10;;;15.75;;
68655;SDS011;55638;51.122;13.606;2024-01-30T17:13:19;32.33;;;17.00;;
68655;SDS011;55638;51.122;13.606;2024-01-30T17:14:53;30.67;;;17.58;;
68655;SDS011;55638;51.122;13.606;2024-01-30T17:16:25;30.90;;;16.45;;
68655;SDS011;55638;51.122;13.606;2024-01-30T17:18:00;29.98;;;17.00;;
68655;SDS011;55638;51.122;13.606;2024-01-30T17:19:32;29.88;;;16.73;;
68655;SDS011;55638;51.122;13.606;2024-01-30T17:21:04;29.23;;;16.52;;
68655;SDS011;55638;51.122;13.606;2024-01-30T17:22:37;30.63;;;17.00;;
68655;SDS011;55638;51.122;13.606;2024-01-30T17:24:12;31.35;;;17.73;;
68655;SDS011;55638;51.122;13.606;2024-01-30T17:25:49;29.45;;;16.48;;
68655;SDS011;55638;51.122;13.606;2024-01-30T17:27:22;30.80;;;17.13;;
68655;SDS011;55638;51.122;13.606;2024-01-30T17:28:55;36.45;;;18.42;;
68655;SDS011;55638;51.122;13.606;2024-01-30T17:30:29;31.70;;;17.60;;
68655;SDS011;55638;51.122;13.606;2024-01-30T17:32:03;32.15;;;16.85;;
68655;SDS011;55638;51.122;13.606;2024-01-30T17:33:39;29.30;;;16.27;;
68655;SDS011;55638;51.122;13.606;2024-01-30T17:35:17;29.27;;;16.40;;
68655;SDS011;55638;51.122;13.606;2024-01-30T17:36:50;30.02;;;16.73;;
68655;SDS011;55638;51.122;13.606;2024-01-30T17:38:22;29.35;;;16.90;;
68655;SDS011;55638;51.122;13.606;2024-01-30T17:39:56;31.13;;;17.63;;
68655;SDS011;55638;51.122;13.606;2024-01-30T17:41:33;27.98;;;16.95;;
68655;SDS011;55638;51.122;13.606;2024-01-30T17:43:07;33.75;;;17.38;;
68655;SDS011;55638;51.122;13.606;2024-01-30T17:44:40;28.85;;;17.20;;
68655;SDS011;55638;51.122;13.606;2024-01-30T17:46:16;26.83;;;15.45;;
68655;SDS011;55638;51.122;13.606;2024-01-30T17:47:52;25.80;;;14.90;;
68655;SDS011;55638;51.122;13.606;2024-01-30T17:49:24;27.42;;;15.18;;
68655;SDS011;55638;51.122;13.606;2024-01-30T17:50:57;28.77;;;16.38;;
68655;SDS011;55638;51.122;13.606;2024-01-30T17:52:29;30.35;;;17.10;;
68655;SDS011;55638;51.122;13.606;2024-01-30T17:54:01;33.42;;;17.27;;
68655;SDS011;55638;51.122;13.606;2024-01-30T17:55:32;30.45;;;17.10;;
68655;SDS011;55638;51.122;13.606;2024-01-30T17:57:05;28.38;;;16.70;;
68655;SDS011;55638;51.122;13.606;2024-01-30T17:58:37;29.67;;;17.13;;
68655;SDS011;55638;51.122;13.606;2024-01-30T18:00:09;32.08;;;17.30;;
68655;SDS011;55638;51.122;13.606;2024-01-30T18:01:46;34.50;;;17.75;;
68655;SDS011;55638;51.122;13.606;2024-01-30T18:03:19;31.58;;;17.13;;
68655;SDS011;55638;51.122;13.606;2024-01-30T18:04:51;33.22;;;16.80;;
68655;SDS011;55638;51.122;13.606;2024-01-30T18:06:23;31.45;;;16.30;;
68655;SDS011;55638;51.122;13.606;2024-01-30T18:07:55;29.17;;;15.82;;
68655;SDS011;55638;51.122;13.606;2024-01-30T18:09:27;27.75;;;16.20;;
68655;SDS011;55638;51.122;13.606;2024-01-30T18:10:59;28.88;;;16.35;;
68655;SDS011;55638;51.122;13.606;2024-01-30T18:12:31;33.25;;;16.40;;
68655;SDS011;55638;51.122;13.606;2024-01-30T18:14:03;31.63;;;16.50;;
68655;SDS011;55638;51.122;13.606;2024-01-30T18:15:35;31.63;;;17.30;;
68655;SDS011;55638;51.122;13.606;2024-01-30T18:17:07;32.78;;;18.13;;
68655;SDS011;55638;51.122;13.606;2024-01-30T18:18:39;31.52;;;16.00;;
68655;SDS011;55638;51.122;13.606;2024-01-30T18:20:11;29.42;;;15.85;;
68655;SDS011;55638;51.122;13.606;2024-01-30T18:21:43;33.42;;;17.20;;
68655;SDS011;55638;51.122;13.606;2024-01-30T18:23:15;30.15;;;17.00;;
68655;SDS011;55638;51.122;13.606;2024-01-30T18:24:48;31.65;;;16.73;;
68655;SDS011;55638;51.122;13.606;2024-01-30T18:26:20;31.98;;;17.80;;
68655;SDS011;55638;51.122;13.606;2024-01-30T18:27:52;31.00;;;17.73;;
68655;SDS011;55638;51.122;13.606;2024-01-30T18:29:24;32.72;;;18.02;;
68655;SDS011;55638;51.122;13.606;2024-01-30T18:30:58;31.58;;;17.83;;
68655;SDS011;55638;51.122;13.606;2024-01-30T18:32:30;28.88;;;16.35;;
68655;SDS011;55638;51.122;13.606;2024-01-30T18:34:03;28.15;;;16.08;;
68655;SDS011;55638;51.122;13.606;2024-01-30T18:35:35;32.38;;;16.83;;
68655;SDS011;55638;51.122;13.606;2024-01-30T18:37:07;32.58;;;17.40;;
68655;SDS011;55638;51.122;13.606;2024-01-30T18:38:39;30.88;;;16.95;;
68655;SDS011;55638;51.122;13.606;2024-01-30T18:40:11;31.08;;;17.63;;
68655;SDS011;55638;51.122;13.606;2024-01-30T18:41:44;30.40;;;17.25;;
68655;SDS011;55638;51.122;13.606;2024-01-30T18:43:16;30.23;;;17.40;;
68655;SDS011;55638;51.122;13.606;2024-01-30T18:44:49;30.95;;;17.52;;
68655;SDS011;55638;51.122;13.606;2024-01-30T18:46:21;28.27;;;15.82;;
68655;SDS011;55638;51.122;13.606;2024-01-30T18:47:55;29.48;;;15.60;;
68655;SDS011;55638;51.122;13.606;2024-01-30T18:49:27;30.25;;;15.90;;
68655;SDS011;55638;51.122;13.606;2024-01-30T18:50:59;28.52;;;15.15;;
68655;SDS011;55638;51.122;13.606;2024-01-30T18:52:31;31.02;;;16.17;;
68655;SDS011;55638;51.122;13.606;2024-01-30T18:54:03;29.73;;;16.30;;
68655;SDS011;55638;51.122;13.606;2024-01-30T18:55:35;29.85;;;15.98;;
68655;SDS011;55638;51.122;13.606;2024-01-30T18:57:07;30.88;;;16.55;;
68655;SDS011;55638;51.122;13.606;2024-01-30T18:58:39;31.02;;;16.55;;
68655;SDS011;55638;51.122;13.606;2024-01-30T19:00:11;28.42;;;16.60;;
68655;SDS011;55638;51.122;13.606;2024-01-30T19:01:44;33.92;;;18.20;;
68655;SDS011;55638;51.122;13.606;2024-01-30T19:03:16;34.90;;;18.52;;
68655;SDS011;55638;51.122;13.606;2024-01-30T19:04:49;32.97;;;18.85;;
68655;SDS011;55638;51.122;13.606;2024-01-30T19:06:24;32.13;;;17.63;;
68655;SDS011;55638;51.122;13.606;2024-01-30T19:07:56;38.35;;;19.30;;
68655;SDS011;55638;51.122;13.606;2024-01-30T19:09:27;35.00;;;18.40;;
68655;SDS011;55638;51.122;13.606;2024-01-30T19:10:59;34.30;;;18.05;;
68655;SDS011;55638;51.122;13.606;2024-01-30T19:12:31;35.05;;;19.58;;
68655;SDS011;55638;51.122;13.606;2024-01-30T19:14:03;33.13;;;18.77;;
68655;SDS011;55638;51.122;13.606;2024-01-30T19:15:35;32.60;;;17.23;;
68655;SDS011;55638;51.122;13.606;2024-01-30T19:17:07;31.05;;;17.05;;
68655;SDS011;55638;51.122;13.606;2024-01-30T19:18:39;32.72;;;17.30;;
68655;SDS011;55638;51.122;13.606;2024-01-30T19:20:11;30.15;;;17.52;;
68655;SDS011;55638;51.122;13.606;2024-01-30T19:21:44;31.38;;;17.05;;
68655;SDS011;55638;51.122;13.606;2024-01-30T19:23:17;32.53;;;16.83;;
68655;SDS011;55638;51.122;13.606;2024-01-30T19:24:50;37.58;;;19.17;;
68655;SDS011;55638;51.122;13.606;2024-01-30T19:26:22;37.30;;;19.70;;
68655;SDS011;55638;51.122;13.606;2024-01-30T19:27:54;35.00;;;18.17;;
68655;SDS011;55638;51.122;13.606;2024-01-30T19:29:29;33.92;;;18.48;;
68655;SDS011;55638;51.122;13.606;2024-01-30T19:31:02;34.78;;;19.00;;
68655;SDS011;55638;51.122;13.606;2024-01-30T19:32:34;30.85;;;17.83;;
68655;SDS011;55638;51.122;13.606;2024-01-30T19:34:07;38.58;;;19.42;;
68655;SDS011;55638;51.122;13.606;2024-01-30T19:35:39;31.42;;;17.35;;
68655;SDS011;55638;51.122;13.606;2024-01-30T19:37:11;31.45;;;17.10;;
68655;SDS011;55638;51.122;13.606;2024-01-30T19:38:43;34.63;;;18.98;;
68655;SDS011;55638;51.122;13.606;2024-01-30T19:40:15;38.38;;;20.30;;
68655;SDS011;55638;51.122;13.606;2024-01-30T19:41:47;33.60;;;18.52;;
68655;SDS011;55638;51.122;13.606;2024-01-30T19:43:19;32.88;;;17.70;;
68655;SDS011;55638;51.122;13.606;2024-01-30T19:44:51;31.88;;;17.95;;
68655;SDS011;55638;51.122;13.606;2024-01-30T19:46:23;34.65;;;18.05;;
68655;SDS011;55638;51.122;13.606;2024-01-30T19:47:55;31.67;;;16.67;;
68655;SDS011;55638;51.122;13.606;2024-01-30T19:49:27;29.65;;;16.35;;
68655;SDS011;55638;51.122;13.606;2024-01-30T19:50:59;31.15;;;17.10;;
68655;SDS011;55638;51.122;13.606;2024-01-30T19:52:32;31.48;;;18.20;;
68655;SDS011;55638;51.122;13.606;2024-01-30T19:54:04;33.97;;;17.77;;
68655;SDS011;55638;51.122;13.606;2024-01-30T19:55:36;28.33;;;15.98;;
68655;SDS011;55638;51.122;13.606;2024-01-30T19:57:08;31.83;;;16.00;;
68655;SDS011;55638;51.122;13.606;2024-01-30T19:58:41;30.80;;;15.93;;
68655;SDS011;55638;51.122;13.606;2024-01-30T20:00:13;30.48;;;16.35;;
68655;SDS011;55638;51.122;13.606;2024-01-30T20:01:45;30.15;;;15.70;;
68655;SDS011;55638;51.122;13.606;2024-01-30T20:03:17;29.85;;;15.63;;
68655;SDS011;55638;51.122;13.606;2024-01-30T20:04:49;30.98;;;16.73;;
68655;SDS011;55638;51.122;13.606;2024-01-30T20:06:21;33.50;;;17.23;;
68655;SDS011;55638;51.122;13.606;2024-01-30T20:07:53;32.42;;;16.90;;
68655;SDS011;55638;51.122;13.606;2024-01-30T20:09:26;30.77;;;16.75;;
68655;SDS011;55638;51.122;13.606;2024-01-30T20:10:58;34.40;;;16.50;;
68655;SDS011;55638;51.122;13.606;2024-01-30T20:12:30;32.72;;;15.68;;
68655;SDS011;55638;51.122;13.606;2024-01-30T20:14:02;29.85;;;15.95;;
68655;SDS011;55638;51.122;13.606;2024-01-30T20:15:34;31.75;;;17.80;;
68655;SDS011;55638;51.122;13.606;2024-01-30T20:17:06;28.85;;;16.38;;
68655;SDS011;55638;51.122;13.606;2024-01-30T20:18:39;29.25;;;16.13;;
68655;SDS011;55638;51.122;13.606;2024-01-30T20:20:11;27.90;;;14.73;;
68655;SDS011;55638;51.122;13.606;2024-01-30T20:21:48;29.77;;;15.80;;
68655;SDS011;55638;51.122;13.606;2024-01-30T20:23:20;31.48;;;16.35;;
68655;SDS011;55638;51.122;13.606;2024-01-30T20:24:52;27.92;;;15.05;;
68655;SDS011;55638;51.122;13.606;2024-01-30T20:26:26;28.58;;;14.82;;
68655;SDS011;55638;51.122;13.606;2024-01-30T20:27:58;29.60;;;15.82;;
68655;SDS011;55638;51.122;13.606;2024-01-30T20:29:31;33.55;;;16.98;;
68655;SDS011;55638;51.122;13.606;2024-01-30T20:31:03;31.67;;;17.30;;
68655;SDS011;55638;51.122;13.606;2024-01-30T20:32:35;33.40;;;17.23;;
68655;SDS011;55638;51.122;13.606;2024-01-30T20:34:07;30.25;;;16.88;;
68655;SDS011;55638;51.122;13.606;2024-01-30T20:35:39;30.42;;;16.13;;
68655;SDS011;55638;51.122;13.606;2024-01-30T20:37:11;30.52;;;15.82;;
68655;SDS011;55638;51.122;13.606;2024-01-30T20:38:43;28.77;;;14.85;;
68655;SDS011;55638;51.122;13.606;2024-01-30T20:40:16;26.45;;;15.35;;
68655;SDS011;55638;51.122;13.606;2024-01-30T20:41:49;28.20;;;14.70;;
68655;SDS011;55638;51.122;13.606;2024-01-30T20:43:22;29.40;;;15.65;;
68655;SDS011;55638;51.122;13.606;2024-01-30T20:44:54;27.85;;;15.40;;
68655;SDS011;55638;51.122;13.606;2024-01-30T20:46:26;28.92;;;15.23;;
68655;SDS011;55638;51.122;13.606;2024-01-30T20:47:58;28.30;;;14.90;;
68655;SDS011;55638;51.122;13.606;2024-01-30T20:49:30;28.33;;;15.60;;
68655;SDS011;55638;51.122;13.606;2024-01-30T20:51:02;29.85;;;16.30;;
68655;SDS011;55638;51.122;13.606;2024-01-30T20:52:34;28.60;;;16.25;;
68655;SDS011;55638;51.122;13.606;2024-01-30T20:54:06;28.90;;;15.68;;
68655;SDS011;55638;51.122;13.606;2024-01-30T20:55:38;28.60;;;15.50;;
68655;SDS011;55638;51.122;13.606;2024-01-30T20:57:10;27.60;;;15.60;;
68655;SDS011;55638;51.122;13.606;2024-01-30T20:58:42;29.52;;;16.35;;
68655;SDS011;55638;51.122;13.606;2024-01-30T21:00:14;32.58;;;16.48;;
68655;SDS011;55638;51.122;13.606;2024-01-30T21:01:46;31.38;;;17.30;;
68655;SDS011;55638;51.122;13.606;2024-01-30T21:03:18;33.17;;;16.60;;
68655;SDS011;55638;51.122;13.606;2024-01-30T21:04:50;33.83;;;17.70;;
68655;SDS011;55638;51.122;13.606;2024-01-30T21:06:22;30.85;;;16.50;;
68655;SDS011;55638;51.122;13.606;2024-01-30T21:07:55;35.45;;;18.33;;
68655;SDS011;55638;51.122;13.606;2024-01-30T21:09:27;35.67;;;19.73;;
68655;SDS011;55638;51.122;13.606;2024-01-30T21:10:59;32.85;;;18.33;;
68655;SDS011;55638;51.122;13.606;2024-01-30T21:12:33;33.28;;;18.60;;
68655;SDS011;55638;51.122;13.606;2024-01-30T21:14:05;35.88;;;19.23;;
68655;SDS011;55638;51.122;13.606;2024-01-30T21:15:37;35.80;;;18.20;;
68655;SDS011;55638;51.122;13.606;2024-01-30T21:17:09;32.53;;;16.83;;
68655;SDS011;55638;51.122;13.606;2024-01-30T21:18:41;33.35;;;17.02;;
68655;SDS011;55638;51.122;13.606;2024-01-30T21:20:14;34.95;;;18.23;;
68655;SDS011;55638;51.122;13.606;2024-01-30T21:21:47;32.28;;;17.08;;
68655;SDS011;55638;51.122;13.606;2024-01-30T21:23:19;36.00;;;18.45;;
68655;SDS011;55638;51.122;13.606;2024-01-30T21:24:51;32.40;;;17.45;;
68655;SDS011;55638;51.122;13.606;2024-01-30T21:26:23;32.17;;;18.00;;
68655;SDS011;55638;51.122;13.606;2024-01-30T21:27:55;34.92;;;18.98;;
68655;SDS011;55638;51.122;13.606;2024-01-30T21:29:27;31.90;;;17.38;;
68655;SDS011;55638;51.122;13.606;2024-01-30T21:30:59;34.03;;;17.88;;
68655;SDS011;55638;51.122;13.606;2024-01-30T21:32:32;37.92;;;19.42;;
68655;SDS011;55638;51.122;13.606;2024-01-30T21:34:04;33.83;;;17.55;;
68655;SDS011;55638;51.122;13.606;2024-01-30T21:35:36;36.30;;;18.05;;
68655;SDS011;55638;51.122;13.606;2024-01-30T21:37:08;32.70;;;15.98;;
68655;SDS011;55638;51.122;13.606;2024-01-30T21:38:40;31.42;;;16.33;;
68655;SDS011;55638;51.122;13.606;2024-01-30T21:40:12;34.35;;;17.92;;
68655;SDS011;55638;51.122;13.606;2024-01-30T21:41:46;32.83;;;16.10;;
68655;SDS011;55638;51.122;13.606;2024-01-30T21:43:18;24.98;;;14.10;;
68655;SDS011;55638;51.122;13.606;2024-01-30T21:44:50;28.05;;;15.48;;
68655;SDS011;55638;51.122;13.606;2024-01-30T21:46:26;29.45;;;15.60;;
68655;SDS011;55638;51.122;13.606;2024-01-30T21:47:59;29.70;;;16.00;;
68655;SDS011;55638;51.122;13.606;2024-01-30T21:49:31;31.67;;;15.73;;
68655;SDS011;55638;51.122;13.606;2024-01-30T21:51:03;30.00;;;16.73;;
68655;SDS011;55638;51.122;13.606;2024-01-30T21:52:35;34.42;;;18.10;;
68655;SDS011;55638;51.122;13.606;2024-01-30T21:54:08;31.27;;;17.02;;
68655;SDS011;55638;51.122;13.606;2024-01-30T21:55:40;28.63;;;15.55;;
68655;SDS011;55638;51.122;13.606;2024-01-30T21:57:12;30.15;;;16.30;;
68655;SDS011;55638;51.122;13.606;2024-01-30T21:58:44;32.15;;;16.23;;
68655;SDS011;55638;51.122;13.606;2024-01-30T22:00:16;28.65;;;16.90;;
68655;SDS011;55638;51.122;13.606;2024-01-30T22:01:48;30.50;;;15.88;;
68655;SDS011;55638;51.122;13.606;2024-01-30T22:03:21;32.28;;;16.77;;
68655;SDS011;55638;51.122;13.606;2024-01-30T22:04:53;29.92;;;16.50;;
68655;SDS011;55638;51.122;13.606;2024-01-30T22:06:26;33.00;;;17.38;;
68655;SDS011;55638;51.122;13.606;2024-01-30T22:07:58;32.20;;;16.45;;
68655;SDS011;55638;51.122;13.606;2024-01-30T22:09:30;31.27;;;16.75;;
68655;SDS011;55638;51.122;13.606;2024-01-30T22:11:02;32.90;;;17.42;;
68655;SDS011;55638;51.122;13.606;2024-01-30T22:12:37;31.90;;;16.98;;
68655;SDS011;55638;51.122;13.606;2024-01-30T22:14:09;32.80;;;16.65;;
68655;SDS011;55638;51.122;13.606;2024-01-30T22:15:41;31.35;;;16.80;;
68655;SDS011;55638;51.122;13.606;2024-01-30T22:17:13;30.63;;;16.70;;
68655;SDS011;55638;51.122;13.606;2024-01-30T22:18:45;30.13;;;16.65;;
68655;SDS011;55638;51.122;13.606;2024-01-30T22:20:17;32.30;;;17.67;;
68655;SDS011;55638;51.122;13.606;2024-01-30T22:21:49;35.35;;;17.90;;
68655;SDS011;55638;51.122;13.606;2024-01-30T22:23:21;30.00;;;16.15;;
68655;SDS011;55638;51.122;13.606;2024-01-30T22:24:53;33.20;;;16.95;;
68655;SDS011;55638;51.122;13.606;2024-01-30T22:26:25;33.33;;;17.45;;
68655;SDS011;55638;51.122;13.606;2024-01-30T22:27:56;31.50;;;16.98;;
68655;SDS011;55638;51.122;13.606;2024-01-30T22:29:29;29.25;;;15.80;;
68655;SDS011;55638;51.122;13.606;2024-01-30T22:31:01;30.73;;;16.23;;
68655;SDS011;55638;51.122;13.606;2024-01-30T22:32:33;29.75;;;15.60;;
68655;SDS011;55638;51.122;13.606;2024-01-30T22:34:07;30.08;;;15.80;;
68655;SDS011;55638;51.122;13.606;2024-01-30T22:35:39;28.38;;;15.48;;
68655;SDS011;55638;51.122;13.606;2024-01-30T22:37:11;28.55;;;15.70;;
68655;SDS011;55638;51.122;13.606;2024-01-30T22:38:43;30.92;;;16.42;;
68655;SDS011;55638;51.122;13.606;2024-01-30T22:40:15;27.67;;;15.95;;
68655;SDS011;55638;51.122;13.606;2024-01-30T22:41:47;29.45;;;16.55;;
68655;SDS011;55638;51.122;13.606;2024-01-30T22:43:19;29.83;;;16.17;;
68655;SDS011;55638;51.122;13.606;2024-01-30T22:44:51;30.02;;;16.35;;
68655;SDS011;55638;51.122;13.606;2024-01-30T22:46:23;30.05;;;16.27;;
68655;SDS011;55638;51.122;13.606;2024-01-30T22:47:55;25.98;;;15.13;;
68655;SDS011;55638;51.122;13.606;2024-01-30T22:49:27;29.33;;;15.18;;
68655;SDS011;55638;51.122;13.606;2024-01-30T22:50:59;28.63;;;15.88;;
68655;SDS011;55638;51.122;13.606;2024-01-30T22:52:31;30.77;;;15.60;;
68655;SDS011;55638;51.122;13.606;2024-01-30T22:54:03;29.27;;;15.88;;
68655;SDS011;55638;51.122;13.606;2024-01-30T22:55:35;31.70;;;17.17;;
68655;SDS011;55638;51.122;13.606;2024-01-30T22:57:07;29.73;;;15.57;;
68655;SDS011;55638;51.122;13.606;2024-01-30T22:58:39;29.92;;;16.73;;
68655;SDS011;55638;51.122;13.606;2024-01-30T23:00:11;30.58;;;16.02;;
68655;SDS011;55638;51.122;13.606;2024-01-30T23:01:46;33.42;;;16.98;;
68655;SDS011;55638;51.122;13.606;2024-01-30T23:03:18;31.25;;;15.95;;
68655;SDS011;55638;51.122;13.606;2024-01-30T23:04:51;29.60;;;16.05;;
68655;SDS011;55638;51.122;13.606;2024-01-30T23:06:23;31.08;;;17.23;;
68655;SDS011;55638;51.122;13.606;2024-01-30T23:07:55;31.80;;;16.80;;
68655;SDS011;55638;51.122;13.606;2024-01-30T23:09:27;34.22;;;17.10;;
68655;SDS011;55638;51.122;13.606;2024-01-30T23:10:59;33.08;;;16.88;;
68655;SDS011;55638;51.122;13.606;2024-01-30T23:12:31;30.85;;;16.92;;
68655;SDS011;55638;51.122;13.606;2024-01-30T23:14:03;33.72;;;17.73;;
68655;SDS011;55638;51.122;13.606;2024-01-30T23:15:35;29.02;;;15.75;;
68655;SDS011;55638;51.122;13.606;2024-01-30T23:17:07;34.35;;;16.52;;
68655;SDS011;55638;51.122;13.606;2024-01-30T23:18:40;29.08;;;16.70;;
68655;SDS011;55638;51.122;13.606;2024-01-30T23:20:12;31.65;;;17.35;;
68655;SDS011;55638;51.122;13.606;2024-01-30T23:21:45;33.90;;;17.80;;
68655;SDS011;55638;51.122;13.606;2024-01-30T23:23:17;28.75;;;15.30;;
68655;SDS011;55638;51.122;13.606;2024-01-30T23:24:50;32.00;;;16.15;;
68655;SDS011;55638;51.122;13.606;2024-01-30T23:26:21;33.63;;;16.92;;
68655;SDS011;55638;51.122;13.606;2024-01-30T23:27:53;30.60;;;16.50;;
68655;SDS011;55638;51.122;13.606;2024-01-30T23:29:25;30.10;;;16.27;;
68655;SDS011;55638;51.122;13.606;2024-01-30T23:30:57;31.35;;;17.42;;
68655;SDS011;55638;51.122;13.606;2024-01-30T23:32:29;31.77;;;17.20;;
68655;SDS011;55638;51.122;13.606;2024-01-30T23:34:13;29.25;;;15.57;;
68655;SDS011;55638;51.122;13.606;2024-01-30T23:35:45;31.30;;;16.38;;
68655;SDS011;55638;51.122;13.606;2024-01-30T23:37:17;28.92;;;15.38;;
68655;SDS011;55638;51.122;13.606;2024-01-30T23:38:50;31.83;;;16.42;;
68655;SDS011;55638;51.122;13.606;2024-01-30T23:40:22;31.55;;;16.25;;
68655;SDS011;55638;51.122;13.606;2024-01-30T23:41:54;32.67;;;17.98;;
68655;SDS011;55638;51.122;13.606;2024-01-30T23:43:26;34.85;;;17.20;;
68655;SDS011;55638;51.122;13.606;2024-01-30T23:45:01;34.97;;;18.10;;
68655;SDS011;55638;51.122;13.606;2024-01-30T23:46:32;35.47;;;17.65;;
68655;SDS011;55638;51.122;13.606;2024-01-30T23:48:05;35.85;;;18.15;;
68655;SDS011;55638;51.122;13.606;2024-01-30T23:49:37;33.03;;;18.15;;
68655;SDS011;55638;51.122;13.606;2024-01-30T23:51:10;35.83;;;17.75;;
68655;SDS011;55638;51.122;13.606;2024-01-30T23:52:45;35.17;;;18.08;;
68655;SDS011;55638;51.122;13.606;2024-01-30T23:54:17;35.75;;;18.52;;
68655;SDS011;55638;51.122;13.606;2024-01-30T23:55:49;34.45;;;18.35;;
68655;SDS011;55638;51.122;13.606;2024-01-30T23:57:21;33.67;;;17.35;;
68655;SDS011;55638;51.122;13.606;2024-01-30T23:58:54;32.15;;;17.35;;
